Terminal Aerodrome Forecast
Issued by NWS

Home | Current Version | Previous Version | Text Only | Print | Product List | Glossary On
Versions: 1 2 3 4 5 6 7 8 9 10 11 12 13 14 15 16 17 18 19 20 21 22 23 24 25 26 27
000
FTUS41 KOKX 270200 AAA
TAFHPN
TAF AMD
KHPN 270239Z 2703/2724 03018G28KT 1SM -SN OVC015
     FM270500 01022G32KT 1/4SM +SN FZFG BLSN VV004
     FM271200 34025G35KT 1/2SM SN FZFG BLSN OVC006
     FM272200 33020G33KT 2SM -SN BLSN OVC020
      AMD NOT SKED=

USA.gov is the U.S. government's official web portal to all federal, state and local government web resources and services.